createdAt,value
2022-12-09T00:01:30.812Z,18.16
2022-12-09T00:02:52.258Z,18.68
2022-12-09T00:04:13.879Z,16.69
2022-12-09T00:05:38.320Z,17.63
2022-12-09T00:07:00.064Z,21.43
2022-12-09T00:08:21.813Z,22.94
2022-12-09T00:09:42.978Z,18.98
2022-12-09T00:11:05.118Z,19.84
2022-12-09T00:12:26.388Z,18.38
2022-12-09T00:13:48.811Z,17.02
2022-12-09T00:15:10.120Z,20.16
2022-12-09T00:16:31.731Z,19.27
2022-12-09T00:17:53.213Z,18.26
2022-12-09T00:19:14.487Z,19.21
2022-12-09T00:20:36.258Z,17.92
2022-12-09T00:21:57.244Z,18.93
2022-12-09T00:23:18.259Z,17.84
2022-12-09T00:24:39.671Z,19.97
2022-12-09T00:26:01.376Z,17.73
2022-12-09T00:27:23.079Z,19.14
2022-12-09T00:28:44.251Z,20.99
2022-12-09T00:30:07.159Z,19.93
2022-12-09T00:31:30.955Z,20.39
2022-12-09T00:32:52.790Z,18.12
2022-12-09T00:34:14.225Z,20.81
2022-12-09T00:35:35.835Z,21.28
2022-12-09T00:36:57.227Z,21.24
2022-12-09T00:38:18.405Z,19.12
2022-12-09T00:39:39.310Z,17.06
2022-12-09T00:41:01.178Z,18.30
2022-12-09T00:42:22.486Z,16.96
2022-12-09T00:43:44.235Z,15.69
2022-12-09T00:45:06.269Z,15.26
2022-12-09T00:46:27.844Z,17.75
2022-12-09T00:47:50.733Z,18.19
2022-12-09T00:49:12.130Z,17.71
2022-12-09T00:50:33.555Z,15.53
2022-12-09T00:51:54.637Z,15.75
2022-12-09T00:53:15.991Z,15.34
2022-12-09T00:54:37.227Z,14.53
2022-12-09T00:55:58.577Z,15.58
2022-12-09T00:57:20.297Z,14.79
2022-12-09T00:58:41.808Z,14.19
2022-12-09T01:00:03.753Z,14.36
2022-12-09T01:01:25.839Z,13.72
2022-12-09T01:02:47.263Z,15.65
2022-12-09T01:04:09.233Z,14.18
2022-12-09T01:05:31.163Z,15.24
2022-12-09T01:06:52.524Z,14.88
2022-12-09T01:08:13.877Z,16.64
2022-12-09T01:09:35.504Z,14.53
2022-12-09T01:10:57.396Z,15.01
2022-12-09T01:12:18.461Z,15.44
2022-12-09T01:13:39.951Z,13.57
2022-12-09T01:15:01.656Z,12.75
2022-12-09T01:16:24.794Z,13.90
2022-12-09T01:17:46.224Z,13.60
2022-12-09T01:19:08.337Z,12.66
2022-12-09T01:20:29.566Z,10.54
2022-12-09T01:21:50.834Z,13.76
2022-12-09T01:23:11.984Z,14.68
2022-12-09T01:24:33.246Z,17.26
2022-12-09T01:25:54.725Z,20.92
2022-12-09T01:27:16.212Z,62.07
2022-12-09T01:28:37.851Z,49.33
2022-12-09T01:29:58.967Z,28.30
2022-12-09T01:31:21.904Z,18.21
2022-12-09T01:32:43.074Z,15.98
2022-12-09T01:34:04.526Z,17.87
2022-12-09T01:35:26.087Z,15.93
2022-12-09T01:36:47.227Z,14.48
2022-12-09T01:38:08.555Z,12.11
2022-12-09T01:39:29.877Z,12.46
2022-12-09T01:40:50.944Z,13.95
2022-12-09T01:42:23.359Z,14.33
2022-12-09T01:43:44.741Z,11.58
2022-12-09T01:45:24.893Z,13.13
2022-12-09T01:46:46.283Z,12.93
2022-12-09T01:49:32.363Z,13.26
2022-12-09T01:50:57.268Z,11.19
2022-12-09T01:52:21.566Z,14.25
2022-12-09T01:53:46.694Z,13.99
2022-12-09T01:55:08.609Z,12.50
2022-12-09T01:56:33.387Z,12.27
2022-12-09T01:57:54.820Z,13.16
2022-12-09T01:59:16.649Z,14.26
2022-12-09T02:00:38.050Z,12.41
2022-12-09T02:02:01.228Z,13.80
2022-12-09T02:03:22.503Z,14.77
2022-12-09T02:04:44.754Z,13.92
2022-12-09T02:06:12.706Z,12.74
2022-12-09T02:07:34.937Z,11.54
2022-12-09T02:08:57.194Z,12.77
2022-12-09T02:10:19.332Z,12.72
2022-12-09T02:11:47.456Z,12.04
2022-12-09T02:13:21.327Z,11.57
2022-12-09T02:16:01.209Z,13.19
2022-12-09T02:17:35.327Z,13.83
2022-12-09T02:19:06.980Z,12.96
2022-12-09T02:20:48.474Z,12.53
2022-12-09T02:22:09.829Z,11.49
2022-12-09T02:23:37.401Z,11.69
2022-12-09T02:26:20.817Z,12.89
2022-12-09T02:27:52.573Z,11.53
2022-12-09T02:29:46.351Z,11.87
2022-12-09T02:32:41.949Z,12.41
2022-12-09T02:34:18.117Z,11.88
2022-12-09T02:35:51.130Z,13.97
2022-12-09T02:37:22.135Z,12.72
2022-12-09T02:38:43.728Z,12.22
2022-12-09T02:40:08.651Z,12.29
2022-12-09T02:41:30.516Z,13.05
2022-12-09T02:42:51.926Z,12.75
2022-12-09T02:44:14.795Z,13.11
2022-12-09T02:45:35.987Z,12.12
2022-12-09T02:46:57.796Z,12.87
2022-12-09T02:48:21.352Z,12.77
2022-12-09T02:51:04.922Z,13.39
2022-12-09T02:52:26.415Z,12.35
2022-12-09T02:53:50.613Z,12.29
2022-12-09T02:55:13.580Z,12.35
2022-12-09T02:56:35.722Z,10.81
2022-12-09T02:57:58.989Z,13.35
2022-12-09T03:00:41.719Z,14.27
2022-12-09T03:02:13.015Z,13.03
2022-12-09T03:03:34.518Z,14.84
2022-12-09T03:05:05.721Z,16.20
2022-12-09T03:06:30.145Z,36.32
2022-12-09T03:08:04.092Z,30.22
2022-12-09T03:09:27.838Z,31.64
2022-12-09T03:11:08.551Z,36.93
2022-12-09T03:12:30.430Z,26.21
2022-12-09T03:13:57.686Z,55.56
2022-12-09T03:15:19.806Z,53.64
2022-12-09T03:17:00.321Z,37.96
2022-12-09T03:18:21.880Z,24.84
2022-12-09T03:21:02.001Z,25.49
2022-12-09T03:22:24.952Z,51.40
2022-12-09T03:23:46.207Z,27.14
2022-12-09T03:26:27.599Z,28.21
2022-12-09T03:29:10.184Z,23.27
2022-12-09T03:30:34.520Z,23.00
2022-12-09T03:31:55.465Z,23.28
2022-12-09T03:33:17.428Z,33.94
2022-12-09T03:34:39.799Z,25.97
2022-12-09T03:36:03.503Z,22.51
2022-12-09T03:37:24.452Z,18.96
2022-12-09T03:38:46.088Z,18.40
2022-12-09T03:40:14.083Z,17.34
2022-12-09T03:41:34.181Z,19.58
2022-12-09T03:42:57.912Z,14.69
2022-12-09T03:44:23.281Z,15.48
2022-12-09T03:45:44.865Z,14.27
2022-12-09T03:47:06.933Z,14.64
2022-12-09T03:48:28.522Z,16.82
2022-12-09T03:49:50.001Z,16.31
2022-12-09T03:52:50.396Z,14.31
2022-12-09T03:54:20.392Z,18.53
2022-12-09T03:56:00.610Z,18.86
2022-12-09T03:57:21.992Z,19.12
2022-12-09T03:58:43.485Z,19.80
2022-12-09T04:00:07.294Z,19.09
2022-12-09T04:01:30.472Z,17.96
2022-12-09T04:02:52.073Z,32.37
2022-12-09T04:04:13.756Z,43.10
2022-12-09T04:05:35.222Z,31.33
2022-12-09T04:06:56.939Z,20.00
2022-12-09T04:08:18.287Z,34.66
2022-12-09T04:09:39.774Z,31.88
2022-12-09T04:11:01.531Z,30.25
2022-12-09T04:12:23.083Z,33.86
2022-12-09T04:13:44.245Z,34.45
2022-12-09T04:15:07.267Z,31.21
2022-12-09T04:19:05.658Z,44.50
2022-12-09T04:20:28.037Z,14.57
2022-12-09T04:21:49.457Z,12.27
2022-12-09T04:23:11.289Z,15.38
2022-12-09T04:24:32.714Z,15.59
2022-12-09T04:25:54.390Z,14.02
2022-12-09T04:27:16.351Z,14.20
2022-12-09T04:28:38.121Z,16.05
2022-12-09T04:29:59.915Z,15.03
2022-12-09T04:31:21.453Z,15.38
2022-12-09T04:32:43.194Z,37.30
2022-12-09T04:34:09.280Z,22.63
2022-12-09T04:36:48.796Z,36.76
2022-12-09T04:38:12.108Z,28.68
2022-12-09T04:39:33.787Z,30.69
2022-12-09T04:40:55.501Z,21.86
2022-12-09T04:42:17.034Z,30.07
2022-12-09T04:43:38.549Z,28.11
2022-12-09T04:45:00.231Z,29.09
2022-12-09T04:46:21.827Z,21.37
2022-12-09T04:47:43.306Z,18.72
2022-12-09T04:49:04.717Z,29.44
2022-12-09T04:50:26.716Z,27.69
2022-12-09T04:51:48.443Z,18.26
2022-12-09T04:53:09.921Z,23.98
2022-12-09T04:54:31.362Z,24.64
2022-12-09T04:55:59.906Z,18.55
2022-12-09T04:57:21.579Z,20.97
2022-12-09T04:58:43.543Z,17.58
2022-12-09T05:00:07.337Z,14.76
2022-12-09T05:01:31.500Z,17.49
2022-12-09T05:02:53.612Z,17.11
2022-12-09T05:04:16.489Z,18.19
2022-12-09T05:05:40.102Z,16.05
2022-12-09T05:07:01.799Z,16.82
2022-12-09T05:08:29.822Z,16.22
2022-12-09T05:09:46.474Z,17.58
2022-12-09T05:11:08.009Z,20.58
2022-12-09T05:12:30.267Z,17.25
2022-12-09T05:15:04.057Z,24.52
2022-12-09T05:17:48.380Z,15.20
2022-12-09T05:19:09.831Z,20.37
2022-12-09T05:20:32.230Z,18.56
2022-12-09T05:21:55.150Z,17.24
2022-12-09T05:23:16.552Z,18.42
2022-12-09T05:24:38.319Z,15.66
2022-12-09T05:27:12.612Z,18.64
2022-12-09T05:28:34.012Z,20.08
2022-12-09T05:29:55.917Z,19.30
2022-12-09T05:31:21.063Z,19.12
2022-12-09T05:32:42.826Z,18.73
2022-12-09T05:34:04.502Z,18.08
2022-12-09T05:35:27.953Z,18.09
2022-12-09T05:36:49.748Z,18.23
2022-12-09T05:38:12.875Z,22.42
2022-12-09T05:39:33.942Z,20.38
2022-12-09T05:41:00.622Z,21.57
2022-12-09T05:42:22.296Z,20.21
2022-12-09T05:43:43.595Z,24.14
2022-12-09T05:45:05.923Z,21.67
2022-12-09T05:46:27.477Z,26.03
2022-12-09T05:47:49.153Z,20.94
2022-12-09T05:49:11.047Z,19.21
2022-12-09T05:50:32.988Z,22.14
2022-12-09T05:51:54.878Z,20.67
2022-12-09T05:53:16.696Z,22.37
2022-12-09T05:54:38.167Z,21.94
2022-12-09T05:55:59.390Z,24.28
2022-12-09T05:57:23.571Z,16.44
2022-12-09T05:58:46.995Z,23.24
2022-12-09T06:00:10.820Z,20.49
2022-12-09T06:01:31.988Z,19.82
2022-12-09T06:02:53.533Z,23.50
2022-12-09T06:04:16.390Z,25.50
2022-12-09T06:05:40.175Z,38.09
2022-12-09T06:07:02.026Z,153.98
2022-12-09T06:08:23.909Z,70.73
2022-12-09T06:09:45.220Z,55.78
2022-12-09T06:11:14.733Z,42.33
2022-12-09T06:12:36.964Z,33.66
2022-12-09T06:13:58.900Z,47.61
2022-12-09T06:15:22.102Z,39.17
2022-12-09T06:16:44.728Z,50.70
2022-12-09T06:18:07.221Z,30.82
2022-12-09T06:19:28.925Z,41.24
2022-12-09T06:20:51.314Z,48.28
2022-12-09T06:22:12.760Z,35.81
2022-12-09T06:23:34.879Z,24.71
2022-12-09T06:24:57.365Z,25.16
2022-12-09T06:26:20.901Z,31.44
2022-12-09T06:27:43.926Z,34.82
2022-12-09T06:30:27.010Z,25.27
2022-12-09T06:31:48.880Z,18.41
2022-12-09T06:33:36.778Z,20.39
2022-12-09T06:34:33.621Z,21.89
2022-12-09T06:35:55.043Z,24.04
2022-12-09T06:37:18.959Z,24.15
2022-12-09T06:38:41.327Z,18.99
2022-12-09T06:40:03.313Z,26.07
2022-12-09T06:41:25.486Z,28.16
2022-12-09T06:42:46.918Z,30.90
2022-12-09T06:44:09.868Z,26.39
2022-12-09T06:45:31.048Z,22.98
2022-12-09T06:46:55.385Z,23.48
2022-12-09T06:48:18.054Z,23.56
2022-12-09T06:49:42.058Z,23.73
2022-12-09T06:51:05.694Z,19.97
2022-12-09T06:52:28.762Z,18.22
2022-12-09T06:53:50.073Z,18.66
2022-12-09T06:55:11.690Z,18.92
2022-12-09T06:56:34.022Z,21.12
2022-12-09T06:57:57.486Z,19.50
2022-12-09T06:59:19.015Z,17.42
2022-12-09T07:00:42.987Z,17.10
2022-12-09T07:02:04.934Z,17.91
2022-12-09T07:03:28.206Z,15.85
2022-12-09T07:04:53.580Z,15.06
2022-12-09T07:06:36.675Z,17.28
2022-12-09T07:09:22.128Z,25.17
2022-12-09T07:10:44.488Z,32.22
2022-12-09T07:12:06.771Z,32.80
2022-12-09T07:13:27.793Z,30.47
2022-12-09T07:14:49.168Z,39.87
2022-12-09T07:16:11.937Z,62.08
2022-12-09T07:17:33.499Z,92.72
2022-12-09T07:18:55.816Z,69.08
2022-12-09T07:20:17.986Z,38.59
2022-12-09T07:21:39.427Z,32.10
2022-12-09T07:23:00.556Z,30.14
2022-12-09T07:24:22.057Z,23.31
2022-12-09T07:25:44.003Z,20.32
2022-12-09T07:28:19.709Z,20.24
2022-12-09T07:29:41.484Z,25.19
2022-12-09T07:31:03.125Z,20.77
2022-12-09T07:32:24.386Z,19.33
2022-12-09T07:33:46.092Z,14.26
2022-12-09T07:35:08.760Z,22.59
2022-12-09T07:36:31.105Z,25.61
2022-12-09T07:39:19.922Z,29.43
2022-12-09T07:40:41.817Z,36.72
2022-12-09T07:42:03.862Z,31.04
2022-12-09T07:43:25.407Z,18.53
2022-12-09T07:44:48.403Z,18.93
2022-12-09T07:46:10.711Z,18.14
2022-12-09T07:47:33.425Z,19.77
2022-12-09T07:48:56.472Z,29.53
2022-12-09T07:50:18.482Z,19.31
2022-12-09T07:51:40.226Z,21.07
2022-12-09T07:53:01.441Z,19.97
2022-12-09T07:54:22.613Z,21.81
2022-12-09T07:55:43.995Z,21.06
2022-12-09T07:57:05.116Z,27.97
2022-12-09T07:58:27.059Z,25.84
2022-12-09T07:59:48.273Z,25.26
2022-12-09T08:01:11.567Z,19.28
2022-12-09T08:02:33.681Z,20.46
2022-12-09T08:03:55.894Z,18.64
2022-12-09T08:05:18.382Z,13.86
2022-12-09T08:06:41.403Z,20.58
2022-12-09T08:08:05.230Z,20.47
2022-12-09T08:09:27.257Z,19.40
2022-12-09T08:10:49.378Z,21.88
2022-12-09T08:12:13.766Z,18.32
2022-12-09T08:13:35.952Z,22.72
2022-12-09T08:14:57.857Z,21.02
2022-12-09T08:16:21.754Z,18.19
2022-12-09T08:17:43.545Z,20.34
2022-12-09T08:19:04.878Z,17.92
2022-12-09T08:20:30.645Z,16.11
2022-12-09T08:21:54.772Z,18.06
2022-12-09T08:23:15.263Z,18.96
2022-12-09T08:24:37.645Z,18.35
2022-12-09T08:25:59.398Z,17.52
2022-12-09T08:27:21.392Z,16.93
2022-12-09T08:28:43.654Z,16.21
2022-12-09T08:30:07.466Z,15.12
2022-12-09T08:31:29.997Z,17.34
2022-12-09T08:32:53.112Z,16.74
2022-12-09T08:34:15.351Z,19.34
2022-12-09T08:35:37.401Z,16.55
2022-12-09T08:37:02.302Z,17.43
2022-12-09T08:38:22.803Z,16.40
2022-12-09T08:39:44.378Z,15.27
2022-12-09T08:42:30.570Z,13.45
2022-12-09T08:43:52.487Z,12.08
2022-12-09T08:45:13.863Z,14.99
2022-12-09T08:46:36.433Z,19.26
2022-12-09T08:48:16.794Z,16.68
2022-12-09T08:49:57.348Z,19.40
2022-12-09T08:51:19.125Z,13.17
2022-12-09T08:52:41.419Z,16.43
2022-12-09T08:54:03.615Z,11.92
2022-12-09T08:55:43.702Z,16.46
2022-12-09T08:57:25.002Z,16.03
2022-12-09T08:58:46.665Z,16.11
2022-12-09T09:00:09.671Z,15.23
2022-12-09T09:02:08.500Z,16.43
2022-12-09T09:04:07.750Z,14.62
2022-12-09T09:05:30.139Z,11.25
2022-12-09T09:06:52.662Z,15.66
2022-12-09T09:08:14.497Z,12.84
2022-12-09T09:09:36.543Z,15.08
2022-12-09T09:10:58.629Z,15.42
2022-12-09T09:12:20.884Z,17.20
2022-12-09T09:13:43.708Z,9.91
2022-12-09T09:15:07.385Z,12.93
2022-12-09T09:16:29.858Z,15.38
2022-12-09T09:17:52.426Z,12.37
2022-12-09T09:19:18.538Z,12.47
2022-12-09T09:20:46.993Z,12.29
2022-12-09T09:22:08.684Z,13.16
2022-12-09T09:23:30.748Z,61.79
2022-12-09T09:24:52.387Z,50.19
2022-12-09T09:27:30.440Z,14.72
2022-12-09T09:28:53.110Z,14.37
2022-12-09T09:31:37.404Z,13.42
2022-12-09T09:32:59.299Z,14.00
2022-12-09T09:34:21.497Z,15.20
2022-12-09T09:35:43.036Z,19.29
2022-12-09T09:37:04.362Z,20.06
2022-12-09T09:38:27.022Z,13.55
2022-12-09T09:39:50.021Z,15.15
2022-12-09T09:41:33.386Z,16.66
2022-12-09T09:42:55.652Z,14.92
2022-12-09T09:44:23.992Z,18.01
2022-12-09T09:45:45.888Z,16.18
2022-12-09T09:48:36.124Z,27.37
2022-12-09T09:50:01.766Z,23.81
2022-12-09T09:51:26.715Z,16.66
2022-12-09T09:52:53.892Z,16.15
2022-12-09T09:54:22.772Z,16.93
2022-12-09T09:55:48.268Z,19.40
2022-12-09T09:57:23.606Z,13.53
2022-12-09T09:58:58.230Z,14.66
2022-12-09T10:00:31.728Z,15.61
2022-12-09T10:02:01.365Z,16.41
2022-12-09T10:03:28.362Z,13.78
2022-12-09T10:05:11.364Z,13.65
2022-12-09T10:06:53.603Z,14.75
2022-12-09T10:09:58.064Z,12.17
2022-12-09T10:14:03.918Z,17.68
2022-12-09T10:15:31.245Z,19.81
2022-12-09T10:17:20.599Z,12.92
2022-12-09T10:19:09.039Z,15.74
2022-12-09T10:20:29.698Z,18.97
2022-12-09T10:21:51.617Z,18.18
2022-12-09T10:23:14.625Z,16.94
2022-12-09T10:24:40.644Z,14.44
2022-12-09T10:26:08.197Z,14.83
2022-12-09T10:27:39.103Z,14.43
2022-12-09T10:30:44.966Z,15.26
2022-12-09T10:32:11.390Z,16.28
2022-12-09T10:33:36.232Z,17.23
2022-12-09T10:36:35.754Z,17.77
2022-12-09T10:37:58.420Z,20.69
2022-12-09T10:39:21.054Z,45.51
2022-12-09T10:41:02.074Z,23.17
2022-12-09T10:42:35.251Z,21.88
2022-12-09T10:43:59.928Z,19.47
2022-12-09T10:45:45.680Z,22.87
2022-12-09T10:47:11.813Z,21.39
2022-12-09T10:48:50.348Z,26.00
2022-12-09T10:51:32.830Z,38.31
2022-12-09T10:52:54.794Z,23.22
2022-12-09T10:54:29.040Z,19.86
2022-12-09T10:55:52.205Z,22.54
2022-12-09T10:57:17.790Z,22.46
2022-12-09T10:58:39.301Z,21.01
2022-12-09T11:00:08.303Z,19.47
2022-12-09T11:01:30.445Z,19.46
2022-12-09T11:02:53.855Z,18.61
2022-12-09T11:05:39.716Z,20.82
2022-12-09T11:07:05.378Z,21.40
2022-12-09T11:08:27.611Z,21.29
2022-12-09T11:09:52.798Z,18.19
2022-12-09T11:11:14.606Z,19.42
2022-12-09T11:12:41.032Z,24.47
2022-12-09T11:14:00.427Z,22.32
2022-12-09T11:15:32.478Z,17.37
2022-12-09T11:16:59.660Z,17.42
2022-12-09T11:18:24.878Z,18.18
2022-12-09T11:20:09.146Z,16.16
2022-12-09T11:24:04.716Z,16.49
2022-12-09T11:26:51.031Z,19.99
2022-12-09T11:28:18.931Z,14.97
2022-12-09T11:29:41.745Z,15.67
2022-12-09T11:31:32.607Z,15.68
2022-12-09T11:32:51.345Z,15.98
2022-12-09T11:34:24.086Z,16.81
2022-12-09T11:35:51.041Z,25.63
2022-12-09T11:38:42.236Z,14.14
2022-12-09T11:40:05.009Z,15.09
2022-12-09T11:41:27.681Z,15.29
2022-12-09T11:42:51.112Z,14.55
2022-12-09T11:44:26.598Z,13.76
2022-12-09T11:45:48.081Z,13.19
2022-12-09T11:48:36.211Z,15.39
2022-12-09T11:51:32.684Z,13.99
2022-12-09T11:53:18.679Z,21.43
2022-12-09T11:54:43.663Z,22.43
2022-12-09T11:56:17.191Z,19.14
2022-12-09T11:58:01.392Z,20.00
2022-12-09T11:59:27.993Z,22.02
2022-12-09T12:00:52.596Z,20.97
2022-12-09T12:02:29.903Z,17.97
2022-12-09T12:04:02.640Z,16.98
2022-12-09T12:06:52.892Z,19.42
2022-12-09T12:08:45.178Z,19.00
2022-12-09T12:10:22.859Z,26.77
2022-12-09T12:12:09.022Z,22.09
2022-12-09T12:13:47.956Z,21.90
2022-12-09T12:17:51.719Z,25.71
2022-12-09T12:19:16.742Z,97.92
2022-12-09T12:20:42.132Z,76.84
2022-12-09T12:22:10.585Z,34.98
2022-12-09T12:26:20.329Z,22.32
2022-12-09T12:28:11.720Z,22.11
2022-12-09T12:29:36.876Z,29.25
2022-12-09T12:31:13.768Z,22.81
2022-12-09T12:32:44.956Z,24.46
2022-12-09T12:34:24.474Z,23.97
2022-12-09T12:35:51.012Z,39.66
2022-12-09T12:37:34.280Z,59.74
2022-12-09T12:40:59.510Z,19.88
2022-12-09T12:42:47.035Z,25.18
2022-12-09T12:44:20.816Z,24.23
2022-12-09T12:46:00.780Z,20.03
2022-12-09T12:47:40.815Z,23.48
2022-12-09T12:49:25.219Z,26.97
2022-12-09T12:55:29.016Z,19.95
2022-12-09T12:57:12.602Z,43.05
2022-12-09T13:00:07.413Z,18.13
2022-12-09T13:01:32.423Z,13.37
2022-12-09T13:03:03.107Z,15.44
2022-12-09T13:04:39.640Z,16.43
2022-12-09T13:06:00.840Z,15.83
2022-12-09T13:07:27.723Z,17.92
2022-12-09T13:09:02.820Z,21.85
2022-12-09T13:10:34.349Z,16.56
2022-12-09T13:12:01.905Z,15.90
2022-12-09T13:13:29.399Z,19.14
2022-12-09T13:14:52.450Z,17.81
2022-12-09T13:16:26.085Z,14.99
2022-12-09T13:17:47.447Z,15.21
2022-12-09T13:19:29.868Z,14.51
2022-12-09T13:20:55.773Z,16.00
2022-12-09T13:23:52.582Z,19.34
2022-12-09T13:25:26.921Z,21.72
2022-12-09T13:27:21.026Z,20.22
2022-12-09T13:31:00.524Z,22.23
2022-12-09T13:32:45.283Z,16.63
2022-12-09T13:34:31.828Z,18.56
2022-12-09T13:36:06.776Z,20.04
2022-12-09T13:37:37.578Z,16.60
2022-12-09T13:39:35.920Z,15.14
2022-12-09T13:41:15.615Z,15.45
2022-12-09T13:42:46.274Z,16.09
2022-12-09T13:44:09.386Z,19.73
2022-12-09T13:45:36.914Z,19.82
2022-12-09T13:47:27.713Z,27.85
2022-12-09T13:48:49.000Z,17.56
2022-12-09T13:50:43.417Z,17.64
2022-12-09T13:52:05.497Z,18.73
2022-12-09T13:53:29.423Z,20.61
2022-12-09T13:54:50.532Z,18.03
2022-12-09T13:56:23.229Z,17.70
2022-12-09T14:03:53.112Z,15.59
2022-12-09T14:06:41.907Z,15.13
2022-12-09T14:08:06.075Z,15.46
2022-12-09T14:09:39.474Z,12.28
2022-12-09T14:11:21.417Z,14.71
2022-12-09T14:12:58.566Z,13.77
2022-12-09T14:14:26.244Z,14.95
2022-12-09T14:15:48.383Z,14.89
2022-12-09T14:17:19.326Z,19.87
2022-12-09T14:18:40.682Z,18.22
2022-12-09T14:20:22.712Z,18.23
2022-12-09T14:21:47.726Z,19.84
2022-12-09T14:23:12.550Z,22.65
2022-12-09T14:24:34.124Z,21.21
2022-12-09T14:25:57.484Z,14.34
2022-12-09T14:27:20.423Z,17.28
2022-12-09T14:30:30.461Z,25.28
2022-12-09T14:31:58.141Z,18.30
2022-12-09T14:33:24.703Z,20.29
2022-12-09T14:36:06.699Z,15.36
2022-12-09T14:39:24.147Z,19.63
2022-12-09T14:40:43.881Z,18.68
2022-12-09T14:42:09.251Z,19.84
2022-12-09T14:45:14.321Z,20.42
2022-12-09T14:47:58.915Z,21.12
2022-12-09T14:49:22.055Z,21.24
2022-12-09T14:50:43.886Z,24.07
2022-12-09T14:52:14.652Z,23.96
2022-12-09T14:53:36.610Z,30.63
2022-12-09T14:54:59.229Z,26.99
2022-12-09T14:56:21.876Z,26.57
2022-12-09T14:57:44.496Z,26.93
2022-12-09T14:59:08.632Z,27.52
2022-12-09T15:00:34.791Z,27.58
2022-12-09T15:02:01.420Z,22.57
2022-12-09T15:03:45.201Z,22.13
2022-12-09T15:04:49.563Z,28.29
2022-12-09T15:06:13.996Z,21.97
2022-12-09T15:07:35.654Z,18.81
2022-12-09T15:08:57.949Z,18.84
2022-12-09T15:10:22.876Z,14.91
2022-12-09T15:12:56.707Z,22.01
2022-12-09T15:14:19.706Z,15.93
2022-12-09T15:15:43.151Z,15.41
2022-12-09T15:17:04.984Z,17.03
2022-12-09T15:18:26.590Z,17.94
2022-12-09T15:20:03.592Z,16.83
2022-12-09T15:21:13.566Z,16.23
2022-12-09T15:22:35.018Z,16.63
2022-12-09T15:23:57.577Z,16.82
2022-12-09T15:25:19.456Z,19.63
2022-12-09T15:26:43.730Z,23.02
2022-12-09T15:28:14.291Z,16.42
2022-12-09T15:29:36.406Z,16.24
2022-12-09T15:31:04.683Z,18.59
2022-12-09T15:32:28.426Z,20.77
2022-12-09T15:33:51.110Z,17.97
2022-12-09T15:35:23.296Z,18.01
2022-12-09T15:38:07.749Z,17.94
2022-12-09T15:39:32.032Z,15.98
2022-12-09T15:40:55.017Z,14.64
2022-12-09T15:42:18.025Z,17.22
2022-12-09T15:46:27.910Z,11.58
2022-12-09T15:48:04.760Z,12.44
2022-12-09T15:49:30.806Z,15.38
2022-12-09T15:50:55.185Z,13.26
2022-12-09T15:52:17.761Z,14.38
2022-12-09T15:53:53.589Z,14.43
2022-12-09T15:55:14.248Z,15.74
2022-12-09T15:56:43.319Z,18.04
2022-12-09T15:58:07.779Z,16.06
2022-12-09T15:59:33.440Z,14.73
2022-12-09T16:00:54.934Z,19.50
2022-12-09T16:03:39.660Z,12.97
2022-12-09T16:05:04.827Z,16.24
2022-12-09T16:06:28.979Z,16.25
2022-12-09T16:07:59.194Z,14.89
2022-12-09T16:09:21.267Z,14.32
2022-12-09T16:10:49.294Z,16.81
2022-12-09T16:12:25.301Z,11.83
2022-12-09T16:13:59.031Z,12.54
2022-12-09T16:15:23.921Z,12.49
2022-12-09T16:16:51.069Z,17.46
2022-12-09T16:18:32.951Z,14.98
2022-12-09T16:19:54.558Z,15.79
2022-12-09T16:21:23.003Z,15.98
2022-12-09T16:22:44.818Z,16.18
2022-12-09T16:24:09.754Z,12.09
2022-12-09T16:26:55.755Z,13.68
2022-12-09T16:28:21.696Z,12.29
2022-12-09T16:29:49.774Z,12.17
2022-12-09T16:31:17.102Z,10.92
2022-12-09T16:32:40.238Z,12.52
2022-12-09T16:34:02.046Z,13.63
2022-12-09T16:35:30.101Z,13.92
2022-12-09T16:36:53.358Z,16.46
2022-12-09T16:38:16.899Z,12.70
2022-12-09T16:39:38.116Z,15.27
2022-12-09T16:41:07.393Z,13.18
2022-12-09T16:42:29.846Z,15.30
2022-12-09T16:43:55.264Z,12.39
2022-12-09T16:45:36.485Z,13.51
2022-12-09T16:47:15.662Z,14.22
2022-12-09T16:48:36.653Z,15.91
2022-12-09T16:49:57.674Z,13.76
2022-12-09T16:51:22.457Z,12.60
2022-12-09T16:52:43.952Z,15.02
2022-12-09T16:54:16.550Z,12.62
2022-12-09T16:55:35.341Z,13.87
2022-12-09T16:56:56.603Z,13.43
2022-12-09T16:58:17.864Z,15.74
2022-12-09T16:59:39.353Z,17.63
2022-12-09T17:01:01.401Z,29.89
2022-12-09T17:02:32.258Z,23.26
2022-12-09T17:04:00.467Z,13.55
2022-12-09T17:05:22.146Z,16.86
2022-12-09T17:06:44.764Z,11.62
2022-12-09T17:08:05.932Z,11.47
2022-12-09T17:09:27.379Z,11.33
2022-12-09T17:10:48.935Z,10.62
2022-12-09T17:12:11.606Z,11.13
2022-12-09T17:13:33.495Z,8.35
2022-12-09T17:14:54.817Z,8.72
2022-12-09T17:16:16.318Z,9.82
2022-12-09T17:17:37.655Z,10.50
2022-12-09T17:18:58.972Z,9.92
2022-12-09T17:20:20.360Z,10.24
2022-12-09T17:21:41.610Z,10.76
2022-12-09T17:23:03.166Z,10.88
2022-12-09T17:24:24.378Z,12.23
2022-12-09T17:25:49.571Z,11.41
2022-12-09T17:27:11.672Z,13.88
2022-12-09T17:28:33.339Z,16.94
2022-12-09T17:29:54.668Z,10.42
2022-12-09T17:31:18.937Z,11.86
2022-12-09T17:32:41.534Z,9.22
2022-12-09T17:34:02.846Z,10.72
2022-12-09T17:35:24.221Z,9.07
2022-12-09T17:36:45.732Z,10.48
2022-12-09T17:38:06.921Z,10.29
2022-12-09T17:39:30.283Z,11.12
2022-12-09T17:40:51.650Z,11.31
2022-12-09T17:42:12.806Z,10.87
2022-12-09T17:43:34.280Z,9.99
2022-12-09T17:44:55.300Z,9.10
2022-12-09T17:46:16.830Z,9.97
2022-12-09T17:47:37.901Z,11.59
2022-12-09T17:48:59.766Z,13.49
2022-12-09T17:50:22.549Z,11.42
2022-12-09T17:51:43.887Z,11.03
2022-12-09T17:53:05.404Z,11.52
2022-12-09T17:54:26.740Z,12.18
2022-12-09T17:55:48.105Z,11.48
2022-12-09T17:57:09.441Z,10.33
2022-12-09T17:58:30.581Z,11.57
2022-12-09T17:59:51.576Z,9.84
2022-12-09T18:01:15.999Z,13.23
2022-12-09T18:02:37.493Z,11.27
2022-12-09T18:04:04.648Z,10.68
2022-12-09T18:05:23.130Z,10.38
2022-12-09T18:06:45.891Z,11.97
2022-12-09T18:08:07.056Z,9.68
2022-12-09T18:09:29.266Z,9.97
2022-12-09T18:10:50.315Z,12.71
2022-12-09T18:12:11.507Z,11.09
2022-12-09T18:13:32.473Z,11.81
2022-12-09T18:14:53.455Z,11.61
2022-12-09T18:16:17.585Z,10.38
2022-12-09T18:17:39.471Z,10.89
2022-12-09T18:19:05.928Z,13.57
2022-12-09T18:20:27.572Z,20.14
2022-12-09T18:21:48.906Z,17.99
2022-12-09T18:23:09.841Z,22.67
2022-12-09T18:24:30.980Z,39.85
2022-12-09T18:25:52.622Z,15.50
2022-12-09T18:27:14.164Z,10.93
2022-12-09T18:28:36.847Z,29.23
2022-12-09T18:29:58.003Z,21.48
2022-12-09T18:31:19.468Z,12.83
2022-12-09T18:32:40.725Z,9.89
2022-12-09T18:34:01.747Z,9.14
2022-12-09T18:35:25.091Z,13.49
2022-12-09T18:36:46.257Z,11.07
2022-12-09T18:38:12.647Z,10.35
2022-12-09T18:39:31.234Z,9.67
2022-12-09T18:40:52.351Z,11.20
2022-12-09T18:42:14.538Z,9.39
2022-12-09T18:43:36.765Z,10.61
2022-12-09T18:44:57.935Z,11.11
2022-12-09T18:46:31.400Z,9.69
2022-12-09T18:47:52.549Z,9.19
2022-12-09T18:49:19.368Z,10.99
2022-12-09T18:50:41.184Z,10.87
2022-12-09T18:52:04.264Z,13.93
2022-12-09T18:53:25.675Z,14.62
2022-12-09T18:54:46.939Z,14.97
2022-12-09T18:56:08.658Z,10.44
2022-12-09T18:57:30.978Z,9.86
2022-12-09T18:59:09.199Z,11.72
